Sierra Vista, AZ (85650)

9:54 AM MST on February 27, 2015 (GMT -0700)
Mountain Ridge Subdivision | Change Station
CLOSE
Current Station
Personal Weather Station
Location: Sierra Vista, AZ
Elevation: 4672 ft
Nearby Weather Stations

Elev 4672 ft 31.50 °N, 110.27 °W | Updated 49 seconds ago

Clear
Clear
58.2 °F
Feels Like 58.2 °F
N
4.0
Wind Variable Wind from SSW
Gusts 6.0 mph

Today
High -- | Low -- °F
--% Chance of Precip.
Yesterday
High -- | Low -- °F
Precip. -- in
6:50 AM 6:17 PM
Waxing Gibbous, 70% visible
Pressure 29.78 in
Visibility 10.0 miles
Clouds Few 24000 ft
Dew Point 24 °F
Humidity 27%
Rainfall 0.00 in
Snow Depth Not available.
UV 2 out of 12
Pollen 9.10 out of 12
Air Quality Not available.
Flu Activity Not available.
METAR KFHU 271555Z 03005KT 10SM FEW240 13/M06 A2988 RMK SLP084

More Conditions Fewer Conditions

Pressure 29.78 in
Visibility 10.0 miles
Clouds Few 24000 ft
Dew Point 24 °F
Humidity 27%
Rainfall 0.00 in
Snow Depth Not available.
UV 2 out of 12
Pollen 9.10 out of 12
Air Quality Not available.
Flu Activity Not available.
METAR KFHU 271555Z 03005KT 10SM FEW240 13/M06 A2988 RMK SLP084

More Conditions Fewer Conditions

10-Day Weather Forecast

Almanac

Astronomy

Feb. 27, 2015 Rise Set
Actual Time
Civil Twilight
Nautical Twilight
Astronomical Twilight
Moon
Length of Visible Light
Length of Day
Tomorrow will be .
, % of the Moon is Illuminated

Today's Extremes

State Highs State Lows

Community

WunderPhotos

Upload Photos

1,800,732 photos uploaded!

WunderBlogs® & News

Nearby

Air Quality

  Air Quality AQ Index Pollutant
Not available.

Snow Depth

Station Depth Elevation

Earthquake Activity

City Distance Mag. Time & Date
Minimum magnitude displayed is 2.5.

Coastal Water Temperatures

Place Temperature

Nearby Weather Stations